createdAt,value
2018-04-10T00:00:00.403Z,15.40
2018-04-10T00:02:27.942Z,15.40
2018-04-10T00:04:55.488Z,15.30
2018-04-10T00:07:23.041Z,15.30
2018-04-10T00:09:50.599Z,15.30
2018-04-10T00:12:18.174Z,15.20
2018-04-10T00:14:45.731Z,15.20
2018-04-10T00:17:13.281Z,15.20
2018-04-10T00:19:40.833Z,15.20
2018-04-10T00:22:08.393Z,15.20
2018-04-10T00:24:35.945Z,15.10
2018-04-10T00:27:03.490Z,15.10
2018-04-10T00:29:31.046Z,15.10
2018-04-10T00:31:58.614Z,15.10
2018-04-10T00:34:26.168Z,15.10
2018-04-10T00:36:53.715Z,15.10
2018-04-10T00:39:22.032Z,15.10
2018-04-10T00:41:49.611Z,15.00
2018-04-10T00:44:17.153Z,15.00
2018-04-10T00:46:44.697Z,15.00
2018-04-10T00:49:12.302Z,15.00
2018-04-10T00:51:39.833Z,15.00
2018-04-10T00:54:07.438Z,14.90
2018-04-10T00:56:35.755Z,14.90
2018-04-10T00:59:03.336Z,14.90
2018-04-10T01:01:30.883Z,14.90
2018-04-10T01:03:58.432Z,14.90
2018-04-10T01:06:26.006Z,14.80
2018-04-10T01:08:53.535Z,14.70
2018-04-10T01:11:21.087Z,14.70
2018-04-10T01:13:49.421Z,14.60
2018-04-10T01:16:16.969Z,14.60
2018-04-10T01:18:44.580Z,14.60
2018-04-10T01:21:12.894Z,14.60
2018-04-10T01:23:40.427Z,14.50
2018-04-10T01:26:07.990Z,14.50
2018-04-10T01:28:35.529Z,14.40
2018-04-10T01:31:03.871Z,14.20
2018-04-10T01:33:31.421Z,14.20
2018-04-10T01:35:58.967Z,14.20
2018-04-10T01:38:26.643Z,14.30
2018-04-10T01:40:54.171Z,14.30
2018-04-10T01:43:21.735Z,14.20
2018-04-10T01:45:49.272Z,14.20
2018-04-10T01:48:17.593Z,14.00
2018-04-10T01:50:45.146Z,14.00
2018-04-10T01:53:12.698Z,14.00
2018-04-10T01:55:40.262Z,14.00
2018-04-10T01:58:07.816Z,14.00
2018-04-10T02:00:35.372Z,14.00
2018-04-10T02:03:02.908Z,13.90
2018-04-10T02:05:31.201Z,13.90
2018-04-10T02:07:58.775Z,13.90
2018-04-10T02:16:25.585Z,13.90
2018-04-10T02:19:10.755Z,13.80
2018-04-10T02:21:55.770Z,13.80
2018-04-10T02:24:23.344Z,13.70
2018-04-10T02:26:50.878Z,13.70
2018-04-10T02:29:19.196Z,13.60
2018-04-10T02:31:46.721Z,13.60
2018-04-10T02:34:15.038Z,13.60
2018-04-10T02:36:42.578Z,13.60
2018-04-10T02:39:10.138Z,13.60
2018-04-10T02:41:37.726Z,13.50
2018-04-10T02:44:05.247Z,13.50
2018-04-10T02:46:32.820Z,13.40
2018-04-10T02:49:00.361Z,13.30
2018-04-10T02:51:28.682Z,13.30
2018-04-10T02:53:56.236Z,13.20
2018-04-10T02:56:23.789Z,13.30
2018-04-10T02:58:51.326Z,13.30
2018-04-10T03:01:18.866Z,13.20
2018-04-10T03:03:47.198Z,13.20
2018-04-10T03:06:14.738Z,13.20
2018-04-10T03:08:42.290Z,13.20
2018-04-10T03:11:09.832Z,13.20
2018-04-10T03:13:37.399Z,13.20
2018-04-10T03:16:04.923Z,13.20
2018-04-10T03:18:32.462Z,13.20
2018-04-10T03:21:00.007Z,13.10
2018-04-10T03:23:27.551Z,13.10
2018-04-10T03:25:55.096Z,13.10
2018-04-10T03:28:22.654Z,13.10
2018-04-10T03:30:50.195Z,13.10
2018-04-10T03:33:18.502Z,13.00
2018-04-10T03:35:46.058Z,12.90
2018-04-10T03:38:13.602Z,13.00
2018-04-10T03:40:41.179Z,13.00
2018-04-10T03:43:08.733Z,13.00
2018-04-10T03:45:36.286Z,13.10
2018-04-10T03:48:03.850Z,13.00
2018-04-10T03:50:31.395Z,13.00
2018-04-10T03:52:58.975Z,13.10
2018-04-10T03:55:26.514Z,13.00
2018-04-10T03:57:54.057Z,13.00
2018-04-10T04:00:22.396Z,13.00
2018-04-10T04:02:49.937Z,13.00
2018-04-10T04:05:17.493Z,13.00
2018-04-10T04:07:45.015Z,13.00
2018-04-10T04:10:13.333Z,13.00
2018-04-10T04:12:40.864Z,12.90
2018-04-10T04:15:08.421Z,13.00
2018-04-10T04:17:35.983Z,13.00
2018-04-10T04:20:15.561Z,12.90
2018-04-10T04:22:43.114Z,12.90
2018-04-10T04:25:10.664Z,12.90
2018-04-10T04:27:38.240Z,12.90
2018-04-10T04:30:05.769Z,12.80
2018-04-10T04:32:33.326Z,12.80
2018-04-10T04:35:00.873Z,12.80
2018-04-10T04:37:29.227Z,12.70
2018-04-10T04:39:56.783Z,12.70
2018-04-10T04:42:24.322Z,12.70
2018-04-10T04:44:51.885Z,12.70
2018-04-10T04:47:19.422Z,12.70
2018-04-10T04:49:46.973Z,12.70
2018-04-10T04:52:14.495Z,12.60
2018-04-10T04:54:42.808Z,12.50
2018-04-10T04:57:10.365Z,12.50
2018-04-10T04:59:37.968Z,12.50
2018-04-10T05:02:05.475Z,12.50
2018-04-10T05:04:33.031Z,12.50
2018-04-10T05:07:00.592Z,12.40
2018-04-10T05:09:28.171Z,12.30
2018-04-10T05:11:55.700Z,12.20
2018-04-10T05:14:23.238Z,12.20
2018-04-10T05:16:51.566Z,12.20
2018-04-10T05:19:19.138Z,12.10
2018-04-10T05:21:46.681Z,12.20
2018-04-10T05:24:14.246Z,12.10
2018-04-10T05:26:41.777Z,12.10
2018-04-10T05:29:09.327Z,12.00
2018-04-10T05:31:36.910Z,12.00
2018-04-10T05:34:04.441Z,12.00
2018-04-10T05:36:32.766Z,12.10
2018-04-10T05:39:00.313Z,12.10
2018-04-10T05:41:27.887Z,12.10
2018-04-10T05:43:55.419Z,12.00
2018-04-10T05:46:22.964Z,12.00
2018-04-10T05:48:50.492Z,12.00
2018-04-10T05:51:18.064Z,12.00
2018-04-10T05:53:46.372Z,12.00
2018-04-10T05:56:13.940Z,12.00
2018-04-10T05:58:41.492Z,12.10
2018-04-10T06:01:09.062Z,12.00
2018-04-10T06:03:36.602Z,12.00
2018-04-10T06:06:04.191Z,12.00
2018-04-10T06:08:31.747Z,12.10
2018-04-10T06:11:00.092Z,12.10
2018-04-10T06:13:27.637Z,12.10
2018-04-10T06:15:55.937Z,12.20
2018-04-10T06:18:23.516Z,12.20
2018-04-10T06:20:51.058Z,12.30
2018-04-10T06:23:18.615Z,12.30
2018-04-10T06:25:46.183Z,12.30
2018-04-10T06:28:13.749Z,12.30
2018-04-10T06:30:41.291Z,12.40
2018-04-10T06:33:08.862Z,12.50
2018-04-10T06:35:36.408Z,12.50
2018-04-10T06:38:03.955Z,12.60
2018-04-10T06:40:32.267Z,12.60
2018-04-10T06:42:59.849Z,12.60
2018-04-10T06:45:27.406Z,12.60
2018-04-10T06:47:54.977Z,12.70
2018-04-10T06:50:22.507Z,12.70
2018-04-10T06:52:50.051Z,12.70
2018-04-10T06:55:17.628Z,12.80
2018-04-10T06:57:45.166Z,12.90
2018-04-10T07:00:12.717Z,13.10
2018-04-10T07:02:40.347Z,13.10
2018-04-10T07:05:07.894Z,13.20
2018-04-10T07:07:36.217Z,13.50
2018-04-10T07:10:03.781Z,13.50
2018-04-10T07:12:31.340Z,13.60
2018-04-10T07:14:58.892Z,13.60
2018-04-10T07:17:26.426Z,13.70
2018-04-10T07:19:54.764Z,13.80
2018-04-10T07:22:22.289Z,13.80
2018-04-10T07:24:49.856Z,14.00
2018-04-10T07:27:17.415Z,14.10
2018-04-10T07:29:44.976Z,14.20
2018-04-10T07:32:12.523Z,14.40
2018-04-10T07:34:40.049Z,14.50
2018-04-10T07:37:07.624Z,14.80
2018-04-10T07:39:35.963Z,15.10
2018-04-10T07:42:03.529Z,15.10
2018-04-10T07:44:31.063Z,15.30
2018-04-10T07:46:58.639Z,15.50
2018-04-10T07:49:26.187Z,15.60
2018-04-10T07:51:53.777Z,15.80
2018-04-10T07:54:21.328Z,15.90
2018-04-10T07:56:48.904Z,15.90
2018-04-10T07:59:16.439Z,16.00
2018-04-10T08:01:44.000Z,16.20
2018-04-10T08:04:11.525Z,16.40
2018-04-10T08:06:39.090Z,16.60
2018-04-10T08:09:06.631Z,16.70
2018-04-10T08:11:34.174Z,16.90
2018-04-10T08:14:02.488Z,17.20
2018-04-10T08:16:30.035Z,17.20
2018-04-10T08:18:57.608Z,17.30
2018-04-10T08:21:25.142Z,17.50
2018-04-10T08:23:52.688Z,17.70
2018-04-10T08:26:21.010Z,17.90
2018-04-10T08:28:48.556Z,17.90
2018-04-10T08:31:16.146Z,18.20
2018-04-10T08:33:43.718Z,18.40
2018-04-10T08:36:11.284Z,18.60
2018-04-10T08:38:39.623Z,18.70
2018-04-10T08:41:07.144Z,18.70
2018-04-10T08:43:34.702Z,18.80
2018-04-10T08:46:03.011Z,18.80
2018-04-10T08:48:30.560Z,18.80
2018-04-10T08:50:58.128Z,18.80
2018-04-10T08:53:25.665Z,18.90
2018-04-10T08:55:53.247Z,18.90
2018-04-10T08:58:20.788Z,18.90
2018-04-10T09:03:40.453Z,18.80
2018-04-10T09:06:08.775Z,18.80
2018-04-10T09:08:36.327Z,18.80
2018-04-10T09:11:03.856Z,18.80
2018-04-10T09:13:32.183Z,18.70
2018-04-10T09:15:59.720Z,18.70
2018-04-10T09:18:27.282Z,18.80
2018-04-10T09:20:54.833Z,18.80
2018-04-10T09:23:22.403Z,18.80
2018-04-10T09:25:49.942Z,18.90
2018-04-10T09:28:17.483Z,18.90
2018-04-10T09:30:45.771Z,19.00
2018-04-10T09:33:14.108Z,18.90
2018-04-10T09:35:41.633Z,18.90
2018-04-10T09:38:09.196Z,18.90
2018-04-10T09:40:36.737Z,19.00
2018-04-10T09:43:04.304Z,19.10
2018-04-10T09:45:31.845Z,19.20
2018-04-10T09:48:00.179Z,19.40
2018-04-10T09:50:27.718Z,19.40
2018-04-10T09:52:55.273Z,19.50
2018-04-10T09:55:22.805Z,19.50
2018-04-10T09:57:50.365Z,19.60
2018-04-10T10:00:23.588Z,19.60
2018-04-10T10:02:51.139Z,19.60
2018-04-10T10:05:18.673Z,19.70
2018-04-10T10:07:47.056Z,19.80
2018-04-10T10:10:14.589Z,20.00
2018-04-10T10:12:42.189Z,20.00
2018-04-10T10:15:10.508Z,20.20
2018-04-10T10:17:38.078Z,20.20
2018-04-10T10:20:06.395Z,20.10
2018-04-10T10:22:33.936Z,20.10
2018-04-10T10:25:02.282Z,20.20
2018-04-10T10:27:29.826Z,20.20
2018-04-10T10:29:57.381Z,20.30
2018-04-10T10:32:24.904Z,20.20
2018-04-10T10:34:52.453Z,20.20
2018-04-10T10:37:19.989Z,20.20
2018-04-10T10:39:47.561Z,20.20
2018-04-10T10:42:15.880Z,20.20
2018-04-10T10:44:43.446Z,20.20
2018-04-10T10:47:10.975Z,20.10
2018-04-10T10:49:38.521Z,20.20
2018-04-10T10:52:06.825Z,20.30
2018-04-10T10:56:59.529Z,20.40
2018-04-10T10:59:27.093Z,20.50
2018-04-10T11:01:54.631Z,20.50
2018-04-10T11:04:22.519Z,20.60
2018-04-10T11:06:50.092Z,20.80
2018-04-10T11:09:18.432Z,20.70
2018-04-10T11:11:45.982Z,20.70
2018-04-10T11:14:13.552Z,20.70
2018-04-10T11:16:41.095Z,20.60
2018-04-10T11:19:08.793Z,20.60
2018-04-10T11:21:36.337Z,20.50
2018-04-10T11:24:03.903Z,20.50
2018-04-10T11:26:31.434Z,20.60
2018-04-10T11:28:58.975Z,20.60
2018-04-10T11:31:26.514Z,20.60
2018-04-10T11:33:54.053Z,20.50
2018-04-10T11:36:21.586Z,20.30
2018-04-10T11:38:49.143Z,20.50
2018-04-10T11:41:16.668Z,20.50
2018-04-10T11:43:44.231Z,20.60
2018-04-10T11:46:11.756Z,20.60
2018-04-10T11:48:39.292Z,20.60
2018-04-10T11:51:06.813Z,20.70
2018-04-10T11:53:34.367Z,20.60
2018-04-10T11:56:01.901Z,20.60
2018-04-10T11:58:30.333Z,20.60
2018-04-10T12:00:57.880Z,20.50
2018-04-10T12:03:25.420Z,20.60
2018-04-10T12:05:52.955Z,20.60
2018-04-10T12:08:21.293Z,20.60
2018-04-10T12:10:48.838Z,20.50
2018-04-10T12:13:17.139Z,20.60
2018-04-10T12:15:44.674Z,20.60
2018-04-10T12:18:12.229Z,20.60
2018-04-10T12:20:39.781Z,20.60
2018-04-10T12:23:07.347Z,20.50
2018-04-10T12:25:34.887Z,20.50
2018-04-10T12:28:02.456Z,20.50
2018-04-10T12:30:30.762Z,20.50
2018-04-10T12:32:58.294Z,20.50
2018-04-10T12:35:25.848Z,20.60
2018-04-10T12:37:53.387Z,20.50
2018-04-10T12:40:20.930Z,20.40
2018-04-10T12:42:48.513Z,20.40
2018-04-10T12:45:16.075Z,20.50
2018-04-10T12:47:43.636Z,20.50
2018-04-10T12:50:11.177Z,20.60
2018-04-10T12:52:39.490Z,20.70
2018-04-10T12:55:07.028Z,20.70
2018-04-10T12:57:34.547Z,20.60
2018-04-10T13:00:02.116Z,20.60
2018-04-10T13:02:30.420Z,20.70
2018-04-10T13:04:57.973Z,20.70
2018-04-10T13:07:25.496Z,20.60
2018-04-10T13:09:53.067Z,20.60
2018-04-10T13:12:20.591Z,20.20
2018-04-10T13:14:48.123Z,20.40
2018-04-10T13:17:15.674Z,20.60
2018-04-10T13:19:43.221Z,20.70
2018-04-10T13:22:11.522Z,20.90
2018-04-10T13:24:39.096Z,20.90
2018-04-10T13:27:06.664Z,20.80
2018-04-10T13:29:34.209Z,20.80
2018-04-10T13:32:01.768Z,20.70
2018-04-10T13:34:29.326Z,20.70
2018-04-10T13:36:56.863Z,20.60
2018-04-10T13:39:24.413Z,20.50
2018-04-10T13:41:52.709Z,20.00
2018-04-10T13:44:20.311Z,20.00
2018-04-10T13:46:47.845Z,19.90
2018-04-10T13:49:15.415Z,20.20
2018-04-10T13:51:42.963Z,19.90
2018-04-10T13:54:10.633Z,19.80
2018-04-10T13:56:38.165Z,19.80
2018-04-10T13:59:05.709Z,19.80
2018-04-10T14:01:34.017Z,19.90
2018-04-10T14:04:01.570Z,19.90
2018-04-10T14:06:29.112Z,20.00
2018-04-10T14:08:56.676Z,19.90
2018-04-10T14:11:24.199Z,20.00
2018-04-10T14:13:51.736Z,19.90
2018-04-10T14:16:19.291Z,19.90
2018-04-10T14:18:46.853Z,20.20
2018-04-10T14:21:14.388Z,19.90
2018-04-10T14:23:41.945Z,20.20
2018-04-10T14:26:09.499Z,20.00
2018-04-10T14:28:37.031Z,20.10
2018-04-10T14:31:05.348Z,20.10
2018-04-10T14:33:32.902Z,20.00
2018-04-10T14:36:00.457Z,19.90
2018-04-10T14:38:28.012Z,20.00
2018-04-10T14:40:55.558Z,20.00
2018-04-10T14:43:23.119Z,19.80
2018-04-10T14:45:50.654Z,19.90
2018-04-10T14:48:18.973Z,19.90
2018-04-10T14:50:46.539Z,19.90
2018-04-10T14:53:14.077Z,20.00
2018-04-10T14:55:41.625Z,20.20
2018-04-10T14:58:09.191Z,20.30
2018-04-10T15:00:36.723Z,20.40
2018-04-10T15:03:05.056Z,20.30
2018-04-10T15:05:32.595Z,20.30
2018-04-10T15:08:00.153Z,20.20
2018-04-10T15:10:27.722Z,20.20
2018-04-10T15:12:55.269Z,20.20
2018-04-10T15:15:22.800Z,20.30
2018-04-10T15:17:50.357Z,20.20
2018-04-10T15:20:18.642Z,20.00
2018-04-10T15:22:46.927Z,19.90
2018-04-10T15:25:14.474Z,19.90
2018-04-10T15:27:42.767Z,19.60
2018-04-10T15:30:10.332Z,19.60
2018-04-10T15:32:37.863Z,19.80
2018-04-10T15:35:06.192Z,20.00
2018-04-10T15:37:33.725Z,20.00
2018-04-10T15:40:01.277Z,20.00
2018-04-10T15:42:28.825Z,20.00
2018-04-10T15:44:57.141Z,20.10
2018-04-10T15:47:24.695Z,20.10
2018-04-10T15:49:52.260Z,20.00
2018-04-10T15:52:19.816Z,19.90
2018-04-10T15:54:47.359Z,19.90
2018-04-10T15:57:14.886Z,19.70
2018-04-10T15:59:43.205Z,19.90
2018-04-10T16:02:10.766Z,19.90
2018-04-10T16:04:38.318Z,19.80
2018-04-10T16:07:05.848Z,19.80
2018-04-10T16:09:34.170Z,19.80
2018-04-10T16:12:01.706Z,19.80
2018-04-10T16:14:29.255Z,19.80
2018-04-10T16:16:57.560Z,19.60
2018-04-10T16:19:25.116Z,19.50
2018-04-10T16:21:52.669Z,19.40
2018-04-10T16:24:20.236Z,19.50
2018-04-10T16:26:48.260Z,19.60
2018-04-10T16:29:15.895Z,19.50
2018-04-10T16:31:43.457Z,19.30
2018-04-10T16:34:11.024Z,19.20
2018-04-10T16:36:38.566Z,19.10
2018-04-10T16:39:06.137Z,19.20
2018-04-10T16:41:33.674Z,19.10
2018-04-10T16:44:01.235Z,19.10
2018-04-10T16:46:28.795Z,18.90
2018-04-10T16:48:56.339Z,18.80
2018-04-10T16:51:23.875Z,18.80
2018-04-10T16:53:51.449Z,18.70
2018-04-10T16:56:19.016Z,18.50
2018-04-10T16:58:46.564Z,18.50
2018-04-10T17:01:14.106Z,18.50
2018-04-10T17:03:42.439Z,18.50
2018-04-10T17:06:09.975Z,18.40
2018-04-10T17:08:37.539Z,18.40
2018-04-10T17:11:05.082Z,18.30
2018-04-10T17:13:32.638Z,18.30
2018-04-10T17:16:00.159Z,18.30
2018-04-10T17:18:27.743Z,18.30
2018-04-10T17:20:56.037Z,18.20
2018-04-10T17:23:23.589Z,18.20
2018-04-10T17:25:51.139Z,18.20
2018-04-10T17:28:18.682Z,18.30
2018-04-10T17:30:46.974Z,18.30
2018-04-10T17:33:14.539Z,18.20
2018-04-10T17:35:42.113Z,18.30
2018-04-10T17:38:09.643Z,18.20
2018-04-10T17:40:37.936Z,18.10
2018-04-10T17:43:05.475Z,18.00
2018-04-10T17:45:33.774Z,18.00
2018-04-10T17:48:01.351Z,18.00
2018-04-10T17:50:28.897Z,18.00
2018-04-10T17:52:56.449Z,18.00
2018-04-10T17:55:23.981Z,17.90
2018-04-10T17:57:51.529Z,17.90
2018-04-10T18:00:19.085Z,17.80
2018-04-10T18:02:46.625Z,17.80
2018-04-10T18:05:14.163Z,17.70
2018-04-10T18:07:41.721Z,17.70
2018-04-10T18:10:09.288Z,17.70
2018-04-10T18:20:53.894Z,17.60
2018-04-10T18:23:21.437Z,17.60
2018-04-10T18:25:48.977Z,17.50
2018-04-10T18:28:17.306Z,17.50
2018-04-10T18:30:44.855Z,17.50
2018-04-10T18:33:12.424Z,17.50
2018-04-10T18:35:39.978Z,17.40
2018-04-10T18:38:07.532Z,17.40
2018-04-10T18:40:35.090Z,17.40
2018-04-10T18:43:02.661Z,17.40
2018-04-10T18:45:30.218Z,17.40
2018-04-10T18:47:57.758Z,17.40
2018-04-10T18:50:25.369Z,17.30
2018-04-10T18:52:52.920Z,17.30
2018-04-10T18:55:20.449Z,17.30
2018-04-10T18:57:48.051Z,17.30
2018-04-10T19:00:16.373Z,17.30
2018-04-10T19:02:43.947Z,17.30
2018-04-10T19:05:11.498Z,17.30
2018-04-10T19:07:39.042Z,17.30
2018-04-10T19:10:06.598Z,17.20
2018-04-10T19:12:34.160Z,17.20
2018-04-10T19:15:01.736Z,17.20
2018-04-10T19:17:29.278Z,17.20
2018-04-10T19:19:56.813Z,17.20
2018-04-10T19:22:25.165Z,17.10
2018-04-10T19:24:52.696Z,17.10
2018-04-10T19:27:20.266Z,17.10
2018-04-10T19:29:47.796Z,17.00
2018-04-10T19:32:15.320Z,17.00
2018-04-10T19:34:43.632Z,16.90
2018-04-10T19:37:11.205Z,16.90
2018-04-10T19:39:38.790Z,16.90
2018-04-10T19:42:06.337Z,16.90
2018-04-10T19:44:33.875Z,16.80
2018-04-10T19:47:01.442Z,16.80
2018-04-10T19:49:28.979Z,16.70
2018-04-10T19:51:56.544Z,16.70
2018-04-10T19:54:24.068Z,16.70
2018-04-10T19:56:52.387Z,16.70
2018-04-10T19:59:19.945Z,16.70
2018-04-10T20:01:47.482Z,16.70
2018-04-10T20:04:15.033Z,16.60
2018-04-10T20:06:43.346Z,16.60
2018-04-10T20:09:10.908Z,16.60
2018-04-10T20:11:38.455Z,16.60
2018-04-10T20:14:05.994Z,16.50
2018-04-10T20:16:34.329Z,16.40
2018-04-10T20:19:01.871Z,16.40
2018-04-10T20:21:29.455Z,16.30
2018-04-10T20:23:57.003Z,16.30
2018-04-10T20:26:24.546Z,16.30
2018-04-10T20:28:52.126Z,16.20
2018-04-10T20:31:19.656Z,16.20
2018-04-10T20:33:47.225Z,16.20
2018-04-10T20:36:14.768Z,16.10
2018-04-10T20:38:42.316Z,16.00
2018-04-10T20:41:09.874Z,16.00
2018-04-10T20:43:37.414Z,15.90
2018-04-10T20:46:05.732Z,15.80
2018-04-10T20:48:33.275Z,15.90
2018-04-10T20:51:00.820Z,15.90
2018-04-10T20:53:29.145Z,15.80
2018-04-10T20:55:56.692Z,15.80
2018-04-10T20:58:24.254Z,15.80
2018-04-10T21:00:51.812Z,15.80
2018-04-10T21:03:19.368Z,15.80
2018-04-10T21:05:46.926Z,15.80
2018-04-10T21:08:14.469Z,15.80
2018-04-10T21:10:42.034Z,15.80
2018-04-10T21:13:09.579Z,15.70
2018-04-10T21:15:37.165Z,15.60
2018-04-10T21:18:04.723Z,15.60
2018-04-10T21:20:32.288Z,15.50
2018-04-10T21:22:59.816Z,15.50
2018-04-10T21:25:27.410Z,15.40
2018-04-10T21:27:54.964Z,15.30
2018-04-10T21:30:22.561Z,15.30
2018-04-10T21:32:50.110Z,15.30
2018-04-10T21:35:17.654Z,15.20
2018-04-10T21:37:45.232Z,15.20
2018-04-10T21:40:12.759Z,15.20
2018-04-10T21:42:46.045Z,15.20
2018-04-10T21:45:13.590Z,15.20
2018-04-10T21:47:41.111Z,15.20
2018-04-10T21:50:08.663Z,15.20
2018-04-10T21:52:36.236Z,15.20
2018-04-10T21:55:03.786Z,15.30
2018-04-10T21:57:31.331Z,15.20
2018-04-10T21:59:58.912Z,15.10
2018-04-10T22:02:26.435Z,15.10
2018-04-10T22:04:53.997Z,15.00
2018-04-10T22:07:21.545Z,15.00
2018-04-10T22:09:49.094Z,15.00
2018-04-10T22:12:16.669Z,14.90
2018-04-10T22:14:44.217Z,14.90
2018-04-10T22:17:11.800Z,14.80
2018-04-10T22:19:39.357Z,14.80
2018-04-10T22:22:06.929Z,14.80
2018-04-10T22:24:34.460Z,14.80
2018-04-10T22:27:02.002Z,14.70
2018-04-10T22:29:29.576Z,14.70
2018-04-10T22:31:57.106Z,14.70
2018-04-10T22:34:24.629Z,14.60
2018-04-10T22:36:52.949Z,14.50
2018-04-10T22:39:20.518Z,14.50
2018-04-10T22:41:48.050Z,14.50
2018-04-10T22:44:15.632Z,14.40
2018-04-10T22:46:43.188Z,14.40
2018-04-10T22:49:10.720Z,14.40
2018-04-10T22:51:38.280Z,14.30
2018-04-10T22:54:05.845Z,14.30
2018-04-10T22:56:33.389Z,14.20
2018-04-10T22:59:00.948Z,14.30
2018-04-10T23:01:28.497Z,14.30
2018-04-10T23:03:56.793Z,14.30
2018-04-10T23:06:24.359Z,14.20
2018-04-10T23:08:51.925Z,14.20
2018-04-10T23:11:19.478Z,14.20
2018-04-10T23:13:47.027Z,14.20
2018-04-10T23:16:15.366Z,13.90
2018-04-10T23:18:42.932Z,13.90
2018-04-10T23:21:10.485Z,13.90
2018-04-10T23:23:38.061Z,13.90
2018-04-10T23:26:05.616Z,13.90
2018-04-10T23:28:33.191Z,13.80
2018-04-10T23:31:00.775Z,13.70
2018-04-10T23:33:29.117Z,13.70
2018-04-10T23:35:56.668Z,13.70
2018-04-10T23:38:25.021Z,13.60
2018-04-10T23:40:52.552Z,13.60
2018-04-10T23:43:20.872Z,13.50
2018-04-10T23:45:48.452Z,13.50
2018-04-10T23:48:16.011Z,13.60
2018-04-10T23:50:43.567Z,13.60
2018-04-10T23:53:11.092Z,13.70
2018-04-10T23:55:38.667Z,13.70
2018-04-10T23:58:06.219Z,13.70
